sensor_id;sensor_type;location;lat;lon;timestamp;temperature;humidity
23237;DHT22;11787;52.018;8.570;2023-02-28T00:01:24;0.00;99.90
23237;DHT22;11787;52.018;8.570;2023-02-28T00:03:50;0.00;99.90
23237;DHT22;11787;52.018;8.570;2023-02-28T00:06:16;0.00;99.90
23237;DHT22;11787;52.018;8.570;2023-02-28T00:08:41;0.00;99.90
23237;DHT22;11787;52.018;8.570;2023-02-28T00:11:09;0.00;99.90
23237;DHT22;11787;52.018;8.570;2023-02-28T00:13:37;0.00;99.90
23237;DHT22;11787;52.018;8.570;2023-02-28T00:16:06;0.00;99.90
23237;DHT22;11787;52.018;8.570;2023-02-28T00:18:32;0.00;99.90
23237;DHT22;11787;52.018;8.570;2023-02-28T00:20:58;-0.10;99.90
23237;DHT22;11787;52.018;8.570;2023-02-28T00:23:24;-0.10;99.90
23237;DHT22;11787;52.018;8.570;2023-02-28T00:25:50;0.00;99.90
23237;DHT22;11787;52.018;8.570;2023-02-28T00:28:16;0.00;99.90
23237;DHT22;11787;52.018;8.570;2023-02-28T00:30:43;0.00;99.90
23237;DHT22;11787;52.018;8.570;2023-02-28T00:33:09;0.00;99.90
23237;DHT22;11787;52.018;8.570;2023-02-28T00:35:34;0.00;99.90
23237;DHT22;11787;52.018;8.570;2023-02-28T00:38:00;0.00;99.90
23237;DHT22;11787;52.018;8.570;2023-02-28T00:40:26;0.00;99.90
23237;DHT22;11787;52.018;8.570;2023-02-28T00:42:51;0.00;99.90
23237;DHT22;11787;52.018;8.570;2023-02-28T00:45:17;0.00;99.90
23237;DHT22;11787;52.018;8.570;2023-02-28T00:47:43;-0.10;99.90
23237;DHT22;11787;52.018;8.570;2023-02-28T00:50:09;-0.10;99.90
23237;DHT22;11787;52.018;8.570;2023-02-28T00:52:35;-0.10;99.90
23237;DHT22;11787;52.018;8.570;2023-02-28T00:55:00;-0.20;99.90
23237;DHT22;11787;52.018;8.570;2023-02-28T00:57:26;-0.20;99.90
23237;DHT22;11787;52.018;8.570;2023-02-28T00:59:52;-0.30;99.90
23237;DHT22;11787;52.018;8.570;2023-02-28T01:02:20;-0.40;99.90
23237;DHT22;11787;52.018;8.570;2023-02-28T01:04:46;-0.40;99.90
23237;DHT22;11787;52.018;8.570;2023-02-28T01:07:12;-0.40;99.90
23237;DHT22;11787;52.018;8.570;2023-02-28T01:09:37;-0.40;99.90
23237;DHT22;11787;52.018;8.570;2023-02-28T01:12:03;-0.40;99.90
23237;DHT22;11787;52.018;8.570;2023-02-28T01:14:29;-0.40;99.90
23237;DHT22;11787;52.018;8.570;2023-02-28T01:16:54;-0.40;99.90
23237;DHT22;11787;52.018;8.570;2023-02-28T01:19:20;-0.40;99.90
23237;DHT22;11787;52.018;8.570;2023-02-28T01:21:45;-0.40;99.90
23237;DHT22;11787;52.018;8.570;2023-02-28T01:24:11;-0.40;99.90
23237;DHT22;11787;52.018;8.570;2023-02-28T01:26:36;-0.50;99.90
23237;DHT22;11787;52.018;8.570;2023-02-28T01:29:03;-0.50;99.90
23237;DHT22;11787;52.018;8.570;2023-02-28T01:31:28;-0.50;99.90
23237;DHT22;11787;52.018;8.570;2023-02-28T01:33:54;-0.50;99.90
23237;DHT22;11787;52.018;8.570;2023-02-28T01:36:21;-0.50;99.90
23237;DHT22;11787;52.018;8.570;2023-02-28T01:38:48;-0.60;99.90
23237;DHT22;11787;52.018;8.570;2023-02-28T01:41:21;-0.60;99.90
23237;DHT22;11787;52.018;8.570;2023-02-28T01:46:14;-0.70;99.90
23237;DHT22;11787;52.018;8.570;2023-02-28T01:48:44;-0.70;99.90
23237;DHT22;11787;52.018;8.570;2023-02-28T01:51:16;-0.70;99.90
23237;DHT22;11787;52.018;8.570;2023-02-28T01:53:48;-0.70;99.90
23237;DHT22;11787;52.018;8.570;2023-02-28T01:56:18;-0.80;99.90
23237;DHT22;11787;52.018;8.570;2023-02-28T01:58:50;-0.70;99.90
23237;DHT22;11787;52.018;8.570;2023-02-28T02:01:16;-0.70;99.90
23237;DHT22;11787;52.018;8.570;2023-02-28T02:03:59;-0.80;99.90
23237;DHT22;11787;52.018;8.570;2023-02-28T02:06:29;-0.80;99.90
23237;DHT22;11787;52.018;8.570;2023-02-28T02:08:55;-0.90;99.90
23237;DHT22;11787;52.018;8.570;2023-02-28T02:11:23;-0.90;99.90
23237;DHT22;11787;52.018;8.570;2023-02-28T02:13:56;-0.90;99.90
23237;DHT22;11787;52.018;8.570;2023-02-28T02:22:00;-0.90;99.90
23237;DHT22;11787;52.018;8.570;2023-02-28T02:24:49;-0.90;99.90
23237;DHT22;11787;52.018;8.570;2023-02-28T02:36:21;-1.00;99.90
23237;DHT22;11787;52.018;8.570;2023-02-28T02:39:02;-1.10;99.90
23237;DHT22;11787;52.018;8.570;2023-02-28T02:41:39;-1.10;99.90
23237;DHT22;11787;52.018;8.570;2023-02-28T02:44:48;-1.10;99.90
23237;DHT22;11787;52.018;8.570;2023-02-28T02:47:18;-1.10;99.90
23237;DHT22;11787;52.018;8.570;2023-02-28T02:49:56;-1.10;99.90
23237;DHT22;11787;52.018;8.570;2023-02-28T02:52:30;-1.10;99.90
23237;DHT22;11787;52.018;8.570;2023-02-28T02:54:59;-1.10;99.90
23237;DHT22;11787;52.018;8.570;2023-02-28T02:57:43;-1.10;99.90
23237;DHT22;11787;52.018;8.570;2023-02-28T03:00:11;-1.10;99.90
23237;DHT22;11787;52.018;8.570;2023-02-28T03:02:38;-1.10;99.90
23237;DHT22;11787;52.018;8.570;2023-02-28T03:05:09;-1.20;99.90
23237;DHT22;11787;52.018;8.570;2023-02-28T03:07:38;-1.20;99.90
23237;DHT22;11787;52.018;8.570;2023-02-28T03:10:31;-1.20;99.90
23237;DHT22;11787;52.018;8.570;2023-02-28T03:13:19;-1.30;99.90
23237;DHT22;11787;52.018;8.570;2023-02-28T03:15:57;-1.40;99.90
23237;DHT22;11787;52.018;8.570;2023-02-28T03:21:28;-1.40;99.90
23237;DHT22;11787;52.018;8.570;2023-02-28T03:24:10;-1.50;99.90
23237;DHT22;11787;52.018;8.570;2023-02-28T03:26:42;-1.40;99.90
23237;DHT22;11787;52.018;8.570;2023-02-28T03:29:16;-1.50;99.90
23237;DHT22;11787;52.018;8.570;2023-02-28T03:31:58;-1.50;99.90
23237;DHT22;11787;52.018;8.570;2023-02-28T03:34:39;-1.50;99.90
23237;DHT22;11787;52.018;8.570;2023-02-28T03:37:19;-1.50;99.90
23237;DHT22;11787;52.018;8.570;2023-02-28T03:39:49;-1.50;99.90
23237;DHT22;11787;52.018;8.570;2023-02-28T03:42:21;-1.50;99.90
23237;DHT22;11787;52.018;8.570;2023-02-28T03:44:52;-1.60;99.90
23237;DHT22;11787;52.018;8.570;2023-02-28T03:47:25;-1.50;99.90
23237;DHT22;11787;52.018;8.570;2023-02-28T03:50:02;-1.40;99.90
23237;DHT22;11787;52.018;8.570;2023-02-28T03:52:32;-1.50;99.90
23237;DHT22;11787;52.018;8.570;2023-02-28T03:55:02;-1.50;99.90
23237;DHT22;11787;52.018;8.570;2023-02-28T03:57:43;-1.50;99.90
23237;DHT22;11787;52.018;8.570;2023-02-28T04:00:18;-1.60;99.90
23237;DHT22;11787;52.018;8.570;2023-02-28T04:02:45;-1.60;99.90
23237;DHT22;11787;52.018;8.570;2023-02-28T04:05:11;-1.60;99.90
23237;DHT22;11787;52.018;8.570;2023-02-28T04:07:37;-1.60;99.90
23237;DHT22;11787;52.018;8.570;2023-02-28T04:10:03;-1.70;99.90
23237;DHT22;11787;52.018;8.570;2023-02-28T04:12:29;-1.70;99.90
23237;DHT22;11787;52.018;8.570;2023-02-28T04:14:55;-1.80;99.90
23237;DHT22;11787;52.018;8.570;2023-02-28T04:17:21;-1.80;99.90
23237;DHT22;11787;52.018;8.570;2023-02-28T04:19:46;-1.80;99.90
23237;DHT22;11787;52.018;8.570;2023-02-28T04:22:12;-1.80;99.90
23237;DHT22;11787;52.018;8.570;2023-02-28T04:24:38;-1.80;99.90
23237;DHT22;11787;52.018;8.570;2023-02-28T04:27:07;-1.90;99.90
23237;DHT22;11787;52.018;8.570;2023-02-28T04:29:34;-2.00;99.90
23237;DHT22;11787;52.018;8.570;2023-02-28T04:32:00;-2.10;99.90
23237;DHT22;11787;52.018;8.570;2023-02-28T04:34:27;-2.10;99.90
23237;DHT22;11787;52.018;8.570;2023-02-28T04:36:53;-2.10;99.90
23237;DHT22;11787;52.018;8.570;2023-02-28T04:39:21;-2.10;99.90
23237;DHT22;11787;52.018;8.570;2023-02-28T04:41:47;-2.00;99.90
23237;DHT22;11787;52.018;8.570;2023-02-28T04:44:14;-2.00;99.90
23237;DHT22;11787;52.018;8.570;2023-02-28T04:46:41;-2.00;99.90
23237;DHT22;11787;52.018;8.570;2023-02-28T04:49:06;-2.10;99.90
23237;DHT22;11787;52.018;8.570;2023-02-28T04:51:33;-2.10;99.90
23237;DHT22;11787;52.018;8.570;2023-02-28T04:53:58;-2.20;99.90
23237;DHT22;11787;52.018;8.570;2023-02-28T04:56:24;-2.20;99.90
23237;DHT22;11787;52.018;8.570;2023-02-28T04:58:50;-2.20;99.90
23237;DHT22;11787;52.018;8.570;2023-02-28T05:01:30;-2.20;99.90
23237;DHT22;11787;52.018;8.570;2023-02-28T05:03:58;-2.20;99.90
23237;DHT22;11787;52.018;8.570;2023-02-28T05:06:26;-2.20;99.90
23237;DHT22;11787;52.018;8.570;2023-02-28T05:08:53;-2.20;99.90
23237;DHT22;11787;52.018;8.570;2023-02-28T05:11:25;-2.20;99.90
23237;DHT22;11787;52.018;8.570;2023-02-28T05:13:51;-2.20;99.90
23237;DHT22;11787;52.018;8.570;2023-02-28T05:16:17;-2.20;99.90
23237;DHT22;11787;52.018;8.570;2023-02-28T05:18:44;-2.20;99.90
23237;DHT22;11787;52.018;8.570;2023-02-28T05:21:48;-2.10;99.90
23237;DHT22;11787;52.018;8.570;2023-02-28T05:24:14;-2.20;99.90
23237;DHT22;11787;52.018;8.570;2023-02-28T05:26:41;-2.30;99.90
23237;DHT22;11787;52.018;8.570;2023-02-28T05:29:07;-2.40;99.90
23237;DHT22;11787;52.018;8.570;2023-02-28T05:31:33;-2.50;99.90
23237;DHT22;11787;52.018;8.570;2023-02-28T05:33:59;-2.50;99.90
23237;DHT22;11787;52.018;8.570;2023-02-28T05:36:25;-2.40;99.90
23237;DHT22;11787;52.018;8.570;2023-02-28T05:38:51;-2.40;99.90
23237;DHT22;11787;52.018;8.570;2023-02-28T05:41:18;-2.40;99.90
23237;DHT22;11787;52.018;8.570;2023-02-28T05:43:44;-2.40;99.90
23237;DHT22;11787;52.018;8.570;2023-02-28T05:46:11;-2.40;99.90
23237;DHT22;11787;52.018;8.570;2023-02-28T05:48:38;-2.30;99.90
23237;DHT22;11787;52.018;8.570;2023-02-28T05:51:05;-2.30;99.90
23237;DHT22;11787;52.018;8.570;2023-02-28T05:53:32;-2.40;99.90
23237;DHT22;11787;52.018;8.570;2023-02-28T05:55:58;-2.30;99.90
23237;DHT22;11787;52.018;8.570;2023-02-28T05:58:24;-2.40;99.90
23237;DHT22;11787;52.018;8.570;2023-02-28T06:00:59;-2.40;99.90
23237;DHT22;11787;52.018;8.570;2023-02-28T06:03:25;-2.40;99.90
23237;DHT22;11787;52.018;8.570;2023-02-28T06:05:51;-2.40;99.90
23237;DHT22;11787;52.018;8.570;2023-02-28T06:08:17;-2.40;99.90
23237;DHT22;11787;52.018;8.570;2023-02-28T06:10:43;-2.40;99.90
23237;DHT22;11787;52.018;8.570;2023-02-28T06:13:10;-2.50;99.90
23237;DHT22;11787;52.018;8.570;2023-02-28T06:15:37;-2.40;99.90
23237;DHT22;11787;52.018;8.570;2023-02-28T06:18:02;-2.50;99.90
23237;DHT22;11787;52.018;8.570;2023-02-28T06:20:28;-2.60;99.90
23237;DHT22;11787;52.018;8.570;2023-02-28T06:22:56;-2.60;99.90
23237;DHT22;11787;52.018;8.570;2023-02-28T06:25:24;-2.60;99.90
23237;DHT22;11787;52.018;8.570;2023-02-28T06:27:50;-2.70;99.90
23237;DHT22;11787;52.018;8.570;2023-02-28T06:30:15;-2.60;99.90
23237;DHT22;11787;52.018;8.570;2023-02-28T06:32:41;-2.60;99.90
23237;DHT22;11787;52.018;8.570;2023-02-28T06:35:07;-2.50;99.90
23237;DHT22;11787;52.018;8.570;2023-02-28T06:37:32;-2.50;99.90
23237;DHT22;11787;52.018;8.570;2023-02-28T06:39:58;-2.50;99.90
23237;DHT22;11787;52.018;8.570;2023-02-28T06:42:24;-2.40;99.90
23237;DHT22;11787;52.018;8.570;2023-02-28T06:44:57;-2.40;99.90
23237;DHT22;11787;52.018;8.570;2023-02-28T06:47:23;-2.40;99.90
23237;DHT22;11787;52.018;8.570;2023-02-28T06:49:49;-2.40;99.90
23237;DHT22;11787;52.018;8.570;2023-02-28T06:52:15;-2.40;99.90
23237;DHT22;11787;52.018;8.570;2023-02-28T06:54:40;-2.40;99.90
23237;DHT22;11787;52.018;8.570;2023-02-28T06:57:06;-2.50;99.90
23237;DHT22;11787;52.018;8.570;2023-02-28T06:59:32;-2.50;99.90
23237;DHT22;11787;52.018;8.570;2023-02-28T07:01:57;-2.50;99.90
23237;DHT22;11787;52.018;8.570;2023-02-28T07:04:23;-2.60;99.90
23237;DHT22;11787;52.018;8.570;2023-02-28T07:06:49;-2.60;99.90
23237;DHT22;11787;52.018;8.570;2023-02-28T07:09:15;-2.50;99.90
23237;DHT22;11787;52.018;8.570;2023-02-28T07:11:41;-2.40;99.90
23237;DHT22;11787;52.018;8.570;2023-02-28T07:14:08;-2.40;99.90
23237;DHT22;11787;52.018;8.570;2023-02-28T07:16:35;-2.30;99.90
23237;DHT22;11787;52.018;8.570;2023-02-28T07:19:00;-2.20;99.90
23237;DHT22;11787;52.018;8.570;2023-02-28T07:21:26;-2.20;99.90
23237;DHT22;11787;52.018;8.570;2023-02-28T07:23:52;-2.10;99.90
23237;DHT22;11787;52.018;8.570;2023-02-28T07:26:19;-2.10;99.90
23237;DHT22;11787;52.018;8.570;2023-02-28T07:28:46;-2.00;99.90
23237;DHT22;11787;52.018;8.570;2023-02-28T07:31:13;-2.00;99.90
23237;DHT22;11787;52.018;8.570;2023-02-28T07:33:39;-2.00;99.90
23237;DHT22;11787;52.018;8.570;2023-02-28T07:36:11;-1.80;99.90
23237;DHT22;11787;52.018;8.570;2023-02-28T07:38:41;-1.80;99.90
23237;DHT22;11787;52.018;8.570;2023-02-28T07:41:08;-1.80;99.90
23237;DHT22;11787;52.018;8.570;2023-02-28T07:43:34;-1.70;99.90
23237;DHT22;11787;52.018;8.570;2023-02-28T07:46:08;-1.60;99.90
23237;DHT22;11787;52.018;8.570;2023-02-28T07:48:34;-1.70;99.90
23237;DHT22;11787;52.018;8.570;2023-02-28T07:51:00;-1.60;99.90
23237;DHT22;11787;52.018;8.570;2023-02-28T07:53:27;-1.60;99.90
23237;DHT22;11787;52.018;8.570;2023-02-28T07:55:59;-1.60;99.90
23237;DHT22;11787;52.018;8.570;2023-02-28T07:58:27;-1.50;99.90
23237;DHT22;11787;52.018;8.570;2023-02-28T08:00:53;-1.40;99.90
23237;DHT22;11787;52.018;8.570;2023-02-28T08:03:19;-1.40;99.90
23237;DHT22;11787;52.018;8.570;2023-02-28T08:05:46;-1.40;99.90
23237;DHT22;11787;52.018;8.570;2023-02-28T08:08:11;-1.30;99.90
23237;DHT22;11787;52.018;8.570;2023-02-28T08:10:37;-1.20;99.90
23237;DHT22;11787;52.018;8.570;2023-02-28T08:13:03;-1.10;99.90
23237;DHT22;11787;52.018;8.570;2023-02-28T08:15:29;-1.10;99.90
23237;DHT22;11787;52.018;8.570;2023-02-28T08:17:54;-1.10;99.90
23237;DHT22;11787;52.018;8.570;2023-02-28T08:20:22;-1.00;99.90
23237;DHT22;11787;52.018;8.570;2023-02-28T08:22:47;-1.00;99.90
23237;DHT22;11787;52.018;8.570;2023-02-28T08:25:13;-1.00;99.90
23237;DHT22;11787;52.018;8.570;2023-02-28T08:27:39;-0.80;99.90
23237;DHT22;11787;52.018;8.570;2023-02-28T08:30:05;-0.80;99.90
23237;DHT22;11787;52.018;8.570;2023-02-28T08:32:33;-0.80;99.90
23237;DHT22;11787;52.018;8.570;2023-02-28T08:34:58;-0.70;99.90
23237;DHT22;11787;52.018;8.570;2023-02-28T08:37:24;-0.60;99.90
23237;DHT22;11787;52.018;8.570;2023-02-28T08:39:50;-0.60;99.90
23237;DHT22;11787;52.018;8.570;2023-02-28T08:42:16;-0.60;99.90
23237;DHT22;11787;52.018;8.570;2023-02-28T08:44:42;-0.50;99.90
23237;DHT22;11787;52.018;8.570;2023-02-28T08:47:07;-0.40;99.90
23237;DHT22;11787;52.018;8.570;2023-02-28T08:49:33;-0.30;99.90
23237;DHT22;11787;52.018;8.570;2023-02-28T08:51:59;-0.20;99.90
23237;DHT22;11787;52.018;8.570;2023-02-28T08:54:24;-0.20;99.90
23237;DHT22;11787;52.018;8.570;2023-02-28T08:56:50;-0.20;99.90
23237;DHT22;11787;52.018;8.570;2023-02-28T08:59:16;-0.10;99.90
23237;DHT22;11787;52.018;8.570;2023-02-28T09:01:42;-0.10;99.90
23237;DHT22;11787;52.018;8.570;2023-02-28T09:04:09;0.10;99.90
23237;DHT22;11787;52.018;8.570;2023-02-28T09:06:36;0.10;99.90
23237;DHT22;11787;52.018;8.570;2023-02-28T09:09:02;0.20;99.90
23237;DHT22;11787;52.018;8.570;2023-02-28T09:11:29;0.30;99.90
23237;DHT22;11787;52.018;8.570;2023-02-28T09:13:55;0.40;99.90
23237;DHT22;11787;52.018;8.570;2023-02-28T09:16:21;0.50;99.90
23237;DHT22;11787;52.018;8.570;2023-02-28T09:18:47;0.50;99.90
23237;DHT22;11787;52.018;8.570;2023-02-28T09:21:15;0.60;99.90
23237;DHT22;11787;52.018;8.570;2023-02-28T09:23:42;0.60;99.90
23237;DHT22;11787;52.018;8.570;2023-02-28T09:26:17;0.70;99.90
23237;DHT22;11787;52.018;8.570;2023-02-28T09:28:43;0.70;99.90
23237;DHT22;11787;52.018;8.570;2023-02-28T09:31:16;0.80;99.90
23237;DHT22;11787;52.018;8.570;2023-02-28T09:33:42;0.90;99.90
23237;DHT22;11787;52.018;8.570;2023-02-28T09:36:08;0.90;99.90
23237;DHT22;11787;52.018;8.570;2023-02-28T09:38:34;0.90;99.90
23237;DHT22;11787;52.018;8.570;2023-02-28T09:41:03;1.00;99.90
23237;DHT22;11787;52.018;8.570;2023-02-28T09:43:34;1.10;99.90
23237;DHT22;11787;52.018;8.570;2023-02-28T09:46:27;1.20;99.90
23237;DHT22;11787;52.018;8.570;2023-02-28T09:48:54;1.50;99.90
23237;DHT22;11787;52.018;8.570;2023-02-28T09:54:05;1.80;99.90
23237;DHT22;11787;52.018;8.570;2023-02-28T09:56:36;1.80;99.90
23237;DHT22;11787;52.018;8.570;2023-02-28T10:10:02;2.10;99.90
23237;DHT22;11787;52.018;8.570;2023-02-28T10:12:31;2.10;99.90
23237;DHT22;11787;52.018;8.570;2023-02-28T10:14:58;2.20;99.90
23237;DHT22;11787;52.018;8.570;2023-02-28T10:17:27;2.30;99.90
23237;DHT22;11787;52.018;8.570;2023-02-28T10:25:28;2.80;99.90
23237;DHT22;11787;52.018;8.570;2023-02-28T10:28:05;2.90;99.90
23237;DHT22;11787;52.018;8.570;2023-02-28T10:30:31;3.10;99.90
23237;DHT22;11787;52.018;8.570;2023-02-28T10:32:56;3.10;99.90
23237;DHT22;11787;52.018;8.570;2023-02-28T10:35:24;3.20;99.90
23237;DHT22;11787;52.018;8.570;2023-02-28T10:37:56;3.30;99.90
23237;DHT22;11787;52.018;8.570;2023-02-28T10:45:40;3.70;99.90
23237;DHT22;11787;52.018;8.570;2023-02-28T11:03:42;4.30;99.90
23237;DHT22;11787;52.018;8.570;2023-02-28T11:06:17;4.10;99.90
23237;DHT22;11787;52.018;8.570;2023-02-28T11:08:58;4.00;99.90
23237;DHT22;11787;52.018;8.570;2023-02-28T11:11:26;4.00;99.90
23237;DHT22;11787;52.018;8.570;2023-02-28T11:13:55;4.10;99.90
23237;DHT22;11787;52.018;8.570;2023-02-28T11:16:22;4.10;99.90
23237;DHT22;11787;52.018;8.570;2023-02-28T11:18:57;4.00;99.90
23237;DHT22;11787;52.018;8.570;2023-02-28T11:21:29;3.90;99.90
23237;DHT22;11787;52.018;8.570;2023-02-28T11:24:02;3.90;99.90
23237;DHT22;11787;52.018;8.570;2023-02-28T11:26:37;3.70;99.90
23237;DHT22;11787;52.018;8.570;2023-02-28T11:29:10;3.60;99.90
23237;DHT22;11787;52.018;8.570;2023-02-28T11:31:36;3.50;99.90
23237;DHT22;11787;52.018;8.570;2023-02-28T11:34:25;3.50;99.90
23237;DHT22;11787;52.018;8.570;2023-02-28T11:36:54;3.50;99.90
23237;DHT22;11787;52.018;8.570;2023-02-28T11:39:23;3.50;99.90
23237;DHT22;11787;52.018;8.570;2023-02-28T11:42:10;3.60;99.90
23237;DHT22;11787;52.018;8.570;2023-02-28T11:44:59;3.60;99.90
23237;DHT22;11787;52.018;8.570;2023-02-28T11:50:54;3.80;99.90
23237;DHT22;11787;52.018;8.570;2023-02-28T11:53:36;3.90;99.90
23237;DHT22;11787;52.018;8.570;2023-02-28T12:12:38;3.80;99.90
23237;DHT22;11787;52.018;8.570;2023-02-28T12:36:22;3.90;99.90
23237;DHT22;11787;52.018;8.570;2023-02-28T12:38:55;3.80;99.90
23237;DHT22;11787;52.018;8.570;2023-02-28T12:41:46;3.80;99.90
23237;DHT22;11787;52.018;8.570;2023-02-28T12:44:19;3.80;99.90
23237;DHT22;11787;52.018;8.570;2023-02-28T12:46:49;3.90;99.90
23237;DHT22;11787;52.018;8.570;2023-02-28T12:51:44;4.00;99.90
23237;DHT22;11787;52.018;8.570;2023-02-28T12:59:50;4.30;99.90
23237;DHT22;11787;52.018;8.570;2023-02-28T13:09:01;4.60;99.90
23237;DHT22;11787;52.018;8.570;2023-02-28T13:11:39;4.90;99.90
23237;DHT22;11787;52.018;8.570;2023-02-28T13:14:19;5.30;99.90
23237;DHT22;11787;52.018;8.570;2023-02-28T13:19:34;5.40;99.90
23237;DHT22;11787;52.018;8.570;2023-02-28T13:22:01;5.50;99.90
23237;DHT22;11787;52.018;8.570;2023-02-28T13:29:34;5.50;99.90
23237;DHT22;11787;52.018;8.570;2023-02-28T13:34:32;5.60;99.90
23237;DHT22;11787;52.018;8.570;2023-02-28T13:39:54;5.50;99.90
23237;DHT22;11787;52.018;8.570;2023-02-28T13:42:32;5.60;99.90
23237;DHT22;11787;52.018;8.570;2023-02-28T13:47:40;5.50;99.90
23237;DHT22;11787;52.018;8.570;2023-02-28T14:03:36;5.40;99.90
23237;DHT22;11787;52.018;8.570;2023-02-28T14:08:55;5.40;99.90
23237;DHT22;11787;52.018;8.570;2023-02-28T14:11:31;5.40;99.90
23237;DHT22;11787;52.018;8.570;2023-02-28T14:13:57;5.40;99.90
23237;DHT22;11787;52.018;8.570;2023-02-28T14:16:25;5.20;99.90
23237;DHT22;11787;52.018;8.570;2023-02-28T14:26:53;5.10;99.90
23237;DHT22;11787;52.018;8.570;2023-02-28T14:34:55;4.90;99.90
23237;DHT22;11787;52.018;8.570;2023-02-28T14:37:30;4.90;99.90
23237;DHT22;11787;52.018;8.570;2023-02-28T14:39:57;4.80;99.90
23237;DHT22;11787;52.018;8.570;2023-02-28T14:42:47;4.80;99.90
23237;DHT22;11787;52.018;8.570;2023-02-28T14:45:20;4.80;99.90
23237;DHT22;11787;52.018;8.570;2023-02-28T14:47:47;4.90;99.90
23237;DHT22;11787;52.018;8.570;2023-02-28T14:50:33;4.80;99.90
23237;DHT22;11787;52.018;8.570;2023-02-28T14:52:59;4.80;99.90
23237;DHT22;11787;52.018;8.570;2023-02-28T14:55:35;4.80;99.90
23237;DHT22;11787;52.018;8.570;2023-02-28T14:58:04;4.70;99.90
23237;DHT22;11787;52.018;8.570;2023-02-28T15:00:36;4.70;99.90
23237;DHT22;11787;52.018;8.570;2023-02-28T15:06:06;4.60;99.90
23237;DHT22;11787;52.018;8.570;2023-02-28T15:08:37;4.60;99.90
23237;DHT22;11787;52.018;8.570;2023-02-28T15:13:50;4.60;99.90
23237;DHT22;11787;52.018;8.570;2023-02-28T15:16:46;4.60;99.90
23237;DHT22;11787;52.018;8.570;2023-02-28T15:19:23;4.70;99.90
23237;DHT22;11787;52.018;8.570;2023-02-28T15:22:00;4.70;99.90
23237;DHT22;11787;52.018;8.570;2023-02-28T15:24:30;4.60;99.90
23237;DHT22;11787;52.018;8.570;2023-02-28T15:26:58;4.50;99.90
23237;DHT22;11787;52.018;8.570;2023-02-28T15:29:26;4.50;99.90
23237;DHT22;11787;52.018;8.570;2023-02-28T15:31:56;4.40;99.90
23237;DHT22;11787;52.018;8.570;2023-02-28T15:34:29;4.50;99.90
23237;DHT22;11787;52.018;8.570;2023-02-28T15:36:58;4.50;99.90
23237;DHT22;11787;52.018;8.570;2023-02-28T15:39:26;4.40;99.90
23237;DHT22;11787;52.018;8.570;2023-02-28T15:42:10;4.40;99.90
23237;DHT22;11787;52.018;8.570;2023-02-28T15:44:36;4.40;99.90
23237;DHT22;11787;52.018;8.570;2023-02-28T15:47:06;4.30;99.90
23237;DHT22;11787;52.018;8.570;2023-02-28T15:49:51;4.30;99.90
23237;DHT22;11787;52.018;8.570;2023-02-28T15:52:37;4.30;99.90
23237;DHT22;11787;52.018;8.570;2023-02-28T15:57:52;4.30;99.90
23237;DHT22;11787;52.018;8.570;2023-02-28T16:00:22;4.30;99.90
23237;DHT22;11787;52.018;8.570;2023-02-28T16:02:48;4.20;99.90
23237;DHT22;11787;52.018;8.570;2023-02-28T16:05:30;4.10;99.90
23237;DHT22;11787;52.018;8.570;2023-02-28T16:08:14;4.10;99.90
23237;DHT22;11787;52.018;8.570;2023-02-28T16:10:40;4.10;99.90
23237;DHT22;11787;52.018;8.570;2023-02-28T16:13:08;4.10;99.90
23237;DHT22;11787;52.018;8.570;2023-02-28T16:15:38;4.00;99.90
23237;DHT22;11787;52.018;8.570;2023-02-28T16:18:10;4.00;99.90
23237;DHT22;11787;52.018;8.570;2023-02-28T16:20:36;3.90;99.90
23237;DHT22;11787;52.018;8.570;2023-02-28T16:23:02;3.90;99.90
23237;DHT22;11787;52.018;8.570;2023-02-28T16:25:36;3.90;99.90
23237;DHT22;11787;52.018;8.570;2023-02-28T16:28:02;3.90;99.90
23237;DHT22;11787;52.018;8.570;2023-02-28T16:30:29;3.80;99.90
23237;DHT22;11787;52.018;8.570;2023-02-28T16:32:58;3.80;99.90
23237;DHT22;11787;52.018;8.570;2023-02-28T16:35:25;3.80;99.90
23237;DHT22;11787;52.018;8.570;2023-02-28T16:37:51;3.80;99.90
23237;DHT22;11787;52.018;8.570;2023-02-28T16:40:23;3.70;99.90
23237;DHT22;11787;52.018;8.570;2023-02-28T16:42:52;3.70;99.90
23237;DHT22;11787;52.018;8.570;2023-02-28T16:45:22;3.70;99.90
23237;DHT22;11787;52.018;8.570;2023-02-28T16:47:47;3.70;99.90
23237;DHT22;11787;52.018;8.570;2023-02-28T16:50:18;3.60;99.90
23237;DHT22;11787;52.018;8.570;2023-02-28T16:52:45;3.60;99.90
23237;DHT22;11787;52.018;8.570;2023-02-28T16:55:11;3.50;99.90
23237;DHT22;11787;52.018;8.570;2023-02-28T16:57:36;3.50;99.90
23237;DHT22;11787;52.018;8.570;2023-02-28T17:00:04;3.40;99.90
23237;DHT22;11787;52.018;8.570;2023-02-28T17:02:30;3.30;99.90
23237;DHT22;11787;52.018;8.570;2023-02-28T17:04:55;3.30;99.90
23237;DHT22;11787;52.018;8.570;2023-02-28T17:07:21;3.30;99.90
23237;DHT22;11787;52.018;8.570;2023-02-28T17:09:46;3.20;99.90
23237;DHT22;11787;52.018;8.570;2023-02-28T17:12:12;3.20;99.90
23237;DHT22;11787;52.018;8.570;2023-02-28T17:14:38;3.10;99.90
23237;DHT22;11787;52.018;8.570;2023-02-28T17:17:05;3.10;99.90
23237;DHT22;11787;52.018;8.570;2023-02-28T17:19:31;3.10;99.90
23237;DHT22;11787;52.018;8.570;2023-02-28T17:21:57;3.00;99.90
23237;DHT22;11787;52.018;8.570;2023-02-28T17:24:22;2.90;99.90
23237;DHT22;11787;52.018;8.570;2023-02-28T17:26:48;2.90;99.90
23237;DHT22;11787;52.018;8.570;2023-02-28T17:29:23;2.90;99.90
23237;DHT22;11787;52.018;8.570;2023-02-28T17:31:49;2.90;99.90
23237;DHT22;11787;52.018;8.570;2023-02-28T17:34:15;2.80;99.90
23237;DHT22;11787;52.018;8.570;2023-02-28T17:36:45;2.80;99.90
23237;DHT22;11787;52.018;8.570;2023-02-28T17:39:13;2.70;99.90
23237;DHT22;11787;52.018;8.570;2023-02-28T17:41:40;2.70;99.90
23237;DHT22;11787;52.018;8.570;2023-02-28T17:44:07;2.70;99.90
23237;DHT22;11787;52.018;8.570;2023-02-28T17:46:33;2.60;99.90
23237;DHT22;11787;52.018;8.570;2023-02-28T17:48:58;2.60;99.90
23237;DHT22;11787;52.018;8.570;2023-02-28T17:51:25;2.50;99.90
23237;DHT22;11787;52.018;8.570;2023-02-28T17:53:52;2.50;99.90
23237;DHT22;11787;52.018;8.570;2023-02-28T17:56:20;2.50;99.90
23237;DHT22;11787;52.018;8.570;2023-02-28T17:58:47;2.50;99.90
23237;DHT22;11787;52.018;8.570;2023-02-28T18:01:13;2.40;99.90
23237;DHT22;11787;52.018;8.570;2023-02-28T18:03:39;2.40;99.90
23237;DHT22;11787;52.018;8.570;2023-02-28T18:06:05;2.40;99.90
23237;DHT22;11787;52.018;8.570;2023-02-28T18:08:32;2.40;99.90
23237;DHT22;11787;52.018;8.570;2023-02-28T18:11:00;2.30;99.90
23237;DHT22;11787;52.018;8.570;2023-02-28T18:13:25;2.30;99.90
23237;DHT22;11787;52.018;8.570;2023-02-28T18:15:53;2.30;99.90
23237;DHT22;11787;52.018;8.570;2023-02-28T18:18:19;2.20;99.90
23237;DHT22;11787;52.018;8.570;2023-02-28T18:20:44;2.20;99.90
23237;DHT22;11787;52.018;8.570;2023-02-28T18:23:10;2.20;99.90
23237;DHT22;11787;52.018;8.570;2023-02-28T18:25:36;2.20;99.90
23237;DHT22;11787;52.018;8.570;2023-02-28T18:28:03;2.10;99.90
23237;DHT22;11787;52.018;8.570;2023-02-28T18:30:32;2.10;99.90
23237;DHT22;11787;52.018;8.570;2023-02-28T18:32:59;2.10;99.90
23237;DHT22;11787;52.018;8.570;2023-02-28T18:35:25;2.10;99.90
23237;DHT22;11787;52.018;8.570;2023-02-28T18:40:30;2.00;99.90
23237;DHT22;11787;52.018;8.570;2023-02-28T18:42:55;1.90;99.90